METAR Data
IDs: Format: Raw Decoded Include TAF

Data at: 0222 UTC 06 Dec 2020

METAR for:KCAG (Craig-Moffat Arpt, CO, US)
Text:KCAG 060153Z AUTO 00000KT 10SM CLR M07/M11 A3042 RMK AO2 SLP391 T10671111
Temperature: -6.7°C ( 20°F)
Dewpoint:-11.1°C ( 12°F) [RH = 71%]
Pressure (altimeter):30.42 inches Hg (1030.2 mb) [Sea level pressure: 1039.1 mb]
Winds:calm
Visibility:10 or more sm (16+ km)
Ceiling:at least 12,000 feet AGL
Clouds:sky clear below 12,000 feet AGL
QC Flag:automated observation with no human augmentation